sensor_id;sensor_type;location;lat;lon;timestamp;temperature;humidity
82836;DHT22;72587;50.746;8.246;2023-10-19T00:00:14;9.70;99.90
82836;DHT22;72587;50.746;8.246;2023-10-19T00:02:49;9.70;99.90
82836;DHT22;72587;50.746;8.246;2023-10-19T00:05:18;9.70;99.90
82836;DHT22;72587;50.746;8.246;2023-10-19T00:07:43;9.70;99.90
82836;DHT22;72587;50.746;8.246;2023-10-19T00:10:09;9.70;99.90
82836;DHT22;72587;50.746;8.246;2023-10-19T00:12:36;9.70;99.90
82836;DHT22;72587;50.746;8.246;2023-10-19T00:15:03;9.70;99.90
82836;DHT22;72587;50.746;8.246;2023-10-19T00:17:29;9.80;99.90
82836;DHT22;72587;50.746;8.246;2023-10-19T00:19:57;9.80;99.90
82836;DHT22;72587;50.746;8.246;2023-10-19T00:22:25;9.80;99.90
82836;DHT22;72587;50.746;8.246;2023-10-19T00:24:51;9.80;99.90
82836;DHT22;72587;50.746;8.246;2023-10-19T00:27:16;9.80;99.90
82836;DHT22;72587;50.746;8.246;2023-10-19T00:29:44;9.80;99.90
82836;DHT22;72587;50.746;8.246;2023-10-19T00:32:20;9.80;99.90
82836;DHT22;72587;50.746;8.246;2023-10-19T00:34:50;9.80;99.90
82836;DHT22;72587;50.746;8.246;2023-10-19T00:37:17;9.80;99.90
82836;DHT22;72587;50.746;8.246;2023-10-19T00:39:46;9.90;99.90
82836;DHT22;72587;50.746;8.246;2023-10-19T00:42:21;9.90;99.90
82836;DHT22;72587;50.746;8.246;2023-10-19T00:44:51;9.90;99.90
82836;DHT22;72587;50.746;8.246;2023-10-19T00:47:17;9.80;99.90
82836;DHT22;72587;50.746;8.246;2023-10-19T00:49:49;9.90;99.90
82836;DHT22;72587;50.746;8.246;2023-10-19T00:52:14;9.90;99.90
82836;DHT22;72587;50.746;8.246;2023-10-19T00:54:50;9.90;99.90
82836;DHT22;72587;50.746;8.246;2023-10-19T00:57:18;9.90;99.90
82836;DHT22;72587;50.746;8.246;2023-10-19T00:59:57;9.90;99.90
82836;DHT22;72587;50.746;8.246;2023-10-19T01:02:39;9.90;99.90
82836;DHT22;72587;50.746;8.246;2023-10-19T01:05:11;9.90;99.90
82836;DHT22;72587;50.746;8.246;2023-10-19T01:07:40;9.90;99.90
82836;DHT22;72587;50.746;8.246;2023-10-19T01:10:06;9.90;99.90
82836;DHT22;72587;50.746;8.246;2023-10-19T01:12:38;9.90;99.90
82836;DHT22;72587;50.746;8.246;2023-10-19T01:15:20;9.90;99.90
82836;DHT22;72587;50.746;8.246;2023-10-19T01:17:58;9.90;99.90
82836;DHT22;72587;50.746;8.246;2023-10-19T01:20:26;9.90;99.90
82836;DHT22;72587;50.746;8.246;2023-10-19T01:23:02;10.00;99.90
82836;DHT22;72587;50.746;8.246;2023-10-19T01:28:34;10.00;99.90
82836;DHT22;72587;50.746;8.246;2023-10-19T01:31:06;10.00;99.90
82836;DHT22;72587;50.746;8.246;2023-10-19T01:33:32;10.00;99.90
82836;DHT22;72587;50.746;8.246;2023-10-19T01:36:00;10.00;99.90
82836;DHT22;72587;50.746;8.246;2023-10-19T01:38:44;10.00;99.90
82836;DHT22;72587;50.746;8.246;2023-10-19T01:41:10;10.00;99.90
82836;DHT22;72587;50.746;8.246;2023-10-19T01:43:45;10.00;99.90
82836;DHT22;72587;50.746;8.246;2023-10-19T01:46:12;10.00;99.90
82836;DHT22;72587;50.746;8.246;2023-10-19T01:48:42;10.00;99.90
82836;DHT22;72587;50.746;8.246;2023-10-19T01:51:10;10.00;99.90
82836;DHT22;72587;50.746;8.246;2023-10-19T01:53:42;10.10;99.90
82836;DHT22;72587;50.746;8.246;2023-10-19T01:56:12;10.10;99.90
82836;DHT22;72587;50.746;8.246;2023-10-19T01:58:39;10.10;99.90
82836;DHT22;72587;50.746;8.246;2023-10-19T02:01:09;10.10;99.90
82836;DHT22;72587;50.746;8.246;2023-10-19T02:03:37;10.10;99.90
82836;DHT22;72587;50.746;8.246;2023-10-19T02:06:10;10.10;99.90
82836;DHT22;72587;50.746;8.246;2023-10-19T02:09:05;10.10;99.90
82836;DHT22;72587;50.746;8.246;2023-10-19T02:11:47;10.10;99.90
82836;DHT22;72587;50.746;8.246;2023-10-19T02:14:14;10.20;99.90
82836;DHT22;72587;50.746;8.246;2023-10-19T02:16:44;10.20;99.90
82836;DHT22;72587;50.746;8.246;2023-10-19T02:19:16;10.20;99.90
82836;DHT22;72587;50.746;8.246;2023-10-19T02:21:42;10.20;99.90
82836;DHT22;72587;50.746;8.246;2023-10-19T02:24:09;10.20;99.90
82836;DHT22;72587;50.746;8.246;2023-10-19T02:26:35;10.20;99.90
82836;DHT22;72587;50.746;8.246;2023-10-19T02:29:03;10.20;99.90
82836;DHT22;72587;50.746;8.246;2023-10-19T02:31:33;10.20;99.90
82836;DHT22;72587;50.746;8.246;2023-10-19T02:33:59;10.20;99.90
82836;DHT22;72587;50.746;8.246;2023-10-19T02:36:28;10.20;99.90
82836;DHT22;72587;50.746;8.246;2023-10-19T02:39:00;10.20;99.90
82836;DHT22;72587;50.746;8.246;2023-10-19T02:41:29;10.30;99.90
82836;DHT22;72587;50.746;8.246;2023-10-19T02:43:55;10.30;99.90
82836;DHT22;72587;50.746;8.246;2023-10-19T02:46:33;10.30;99.90
82836;DHT22;72587;50.746;8.246;2023-10-19T02:49:03;10.30;99.90
82836;DHT22;72587;50.746;8.246;2023-10-19T02:51:30;10.30;99.90
82836;DHT22;72587;50.746;8.246;2023-10-19T02:53:56;10.30;99.90
82836;DHT22;72587;50.746;8.246;2023-10-19T02:56:25;10.30;99.90
82836;DHT22;72587;50.746;8.246;2023-10-19T02:58:52;10.30;99.90
82836;DHT22;72587;50.746;8.246;2023-10-19T03:01:19;10.30;99.90
82836;DHT22;72587;50.746;8.246;2023-10-19T03:03:51;10.30;99.90
82836;DHT22;72587;50.746;8.246;2023-10-19T03:06:21;10.30;99.90
82836;DHT22;72587;50.746;8.246;2023-10-19T03:08:47;10.30;99.90
82836;DHT22;72587;50.746;8.246;2023-10-19T03:11:17;10.40;99.90
82836;DHT22;72587;50.746;8.246;2023-10-19T03:13:43;10.30;99.90
82836;DHT22;72587;50.746;8.246;2023-10-19T03:16:08;10.40;99.90
82836;DHT22;72587;50.746;8.246;2023-10-19T03:18:35;10.40;99.90
82836;DHT22;72587;50.746;8.246;2023-10-19T03:21:04;10.30;99.90
82836;DHT22;72587;50.746;8.246;2023-10-19T03:23:29;10.40;99.90
82836;DHT22;72587;50.746;8.246;2023-10-19T03:26:00;10.40;99.90
82836;DHT22;72587;50.746;8.246;2023-10-19T03:29:04;10.40;99.90
82836;DHT22;72587;50.746;8.246;2023-10-19T03:31:39;10.40;99.90
82836;DHT22;72587;50.746;8.246;2023-10-19T03:34:13;10.40;99.90
82836;DHT22;72587;50.746;8.246;2023-10-19T03:36:39;10.40;99.90
82836;DHT22;72587;50.746;8.246;2023-10-19T03:39:05;10.40;99.90
82836;DHT22;72587;50.746;8.246;2023-10-19T03:41:38;10.40;99.90
82836;DHT22;72587;50.746;8.246;2023-10-19T03:44:10;10.40;99.90
82836;DHT22;72587;50.746;8.246;2023-10-19T03:47:05;10.40;99.90
82836;DHT22;72587;50.746;8.246;2023-10-19T03:49:36;10.40;99.90
82836;DHT22;72587;50.746;8.246;2023-10-19T03:52:04;10.30;99.90
82836;DHT22;72587;50.746;8.246;2023-10-19T03:54:30;10.40;99.90
82836;DHT22;72587;50.746;8.246;2023-10-19T03:56:58;10.40;99.90
82836;DHT22;72587;50.746;8.246;2023-10-19T03:59:27;10.40;99.90
82836;DHT22;72587;50.746;8.246;2023-10-19T04:01:57;10.40;99.90
82836;DHT22;72587;50.746;8.246;2023-10-19T04:04:25;10.40;99.90
82836;DHT22;72587;50.746;8.246;2023-10-19T04:06:50;10.40;99.90
82836;DHT22;72587;50.746;8.246;2023-10-19T04:09:23;10.40;99.90
82836;DHT22;72587;50.746;8.246;2023-10-19T04:11:51;10.40;99.90
82836;DHT22;72587;50.746;8.246;2023-10-19T04:14:18;10.40;99.90
82836;DHT22;72587;50.746;8.246;2023-10-19T04:16:45;10.40;99.90
82836;DHT22;72587;50.746;8.246;2023-10-19T04:19:14;10.40;99.90
82836;DHT22;72587;50.746;8.246;2023-10-19T04:21:41;10.40;99.90
82836;DHT22;72587;50.746;8.246;2023-10-19T04:24:10;10.40;99.90
82836;DHT22;72587;50.746;8.246;2023-10-19T04:26:36;10.40;99.90
82836;DHT22;72587;50.746;8.246;2023-10-19T04:29:03;10.30;99.90
82836;DHT22;72587;50.746;8.246;2023-10-19T04:31:44;10.30;99.90
82836;DHT22;72587;50.746;8.246;2023-10-19T04:34:20;10.30;99.90
82836;DHT22;72587;50.746;8.246;2023-10-19T04:36:50;10.40;99.90
82836;DHT22;72587;50.746;8.246;2023-10-19T04:39:16;10.40;99.90
82836;DHT22;72587;50.746;8.246;2023-10-19T04:41:45;10.30;99.90
82836;DHT22;72587;50.746;8.246;2023-10-19T04:44:11;10.20;99.90
82836;DHT22;72587;50.746;8.246;2023-10-19T04:46:36;10.30;99.90
82836;DHT22;72587;50.746;8.246;2023-10-19T04:49:03;10.30;99.90
82836;DHT22;72587;50.746;8.246;2023-10-19T04:51:29;10.30;99.90
82836;DHT22;72587;50.746;8.246;2023-10-19T04:53:55;10.30;99.90
82836;DHT22;72587;50.746;8.246;2023-10-19T04:56:21;10.40;99.90
82836;DHT22;72587;50.746;8.246;2023-10-19T04:58:47;10.40;99.90
82836;DHT22;72587;50.746;8.246;2023-10-19T05:01:13;10.30;99.90
82836;DHT22;72587;50.746;8.246;2023-10-19T05:03:40;10.30;99.90
82836;DHT22;72587;50.746;8.246;2023-10-19T05:06:06;10.30;99.90
82836;DHT22;72587;50.746;8.246;2023-10-19T05:08:31;10.40;99.90
82836;DHT22;72587;50.746;8.246;2023-10-19T05:10:58;10.40;99.90
82836;DHT22;72587;50.746;8.246;2023-10-19T05:13:27;10.40;99.90
82836;DHT22;72587;50.746;8.246;2023-10-19T05:15:54;10.40;99.90
82836;DHT22;72587;50.746;8.246;2023-10-19T05:18:25;10.40;99.90
82836;DHT22;72587;50.746;8.246;2023-10-19T05:20:53;10.40;99.90
82836;DHT22;72587;50.746;8.246;2023-10-19T05:23:23;10.30;99.90
82836;DHT22;72587;50.746;8.246;2023-10-19T05:25:52;10.40;99.90
82836;DHT22;72587;50.746;8.246;2023-10-19T05:28:19;10.30;99.90
82836;DHT22;72587;50.746;8.246;2023-10-19T05:30:45;10.40;99.90
82836;DHT22;72587;50.746;8.246;2023-10-19T05:33:10;10.40;99.90
82836;DHT22;72587;50.746;8.246;2023-10-19T05:35:36;10.40;99.90
82836;DHT22;72587;50.746;8.246;2023-10-19T05:38:06;10.50;99.90
82836;DHT22;72587;50.746;8.246;2023-10-19T05:40:32;10.50;99.90
82836;DHT22;72587;50.746;8.246;2023-10-19T05:42:59;10.50;99.90
82836;DHT22;72587;50.746;8.246;2023-10-19T05:45:26;10.50;99.90
82836;DHT22;72587;50.746;8.246;2023-10-19T05:47:53;10.50;99.90
82836;DHT22;72587;50.746;8.246;2023-10-19T05:50:18;10.50;99.90
82836;DHT22;72587;50.746;8.246;2023-10-19T05:52:44;10.60;99.90
82836;DHT22;72587;50.746;8.246;2023-10-19T05:55:10;10.60;99.90
82836;DHT22;72587;50.746;8.246;2023-10-19T05:57:37;10.60;99.90
82836;DHT22;72587;50.746;8.246;2023-10-19T06:00:07;10.60;99.90
82836;DHT22;72587;50.746;8.246;2023-10-19T06:02:32;10.60;99.90
82836;DHT22;72587;50.746;8.246;2023-10-19T06:05:00;10.60;99.90
82836;DHT22;72587;50.746;8.246;2023-10-19T06:07:26;10.60;99.90
82836;DHT22;72587;50.746;8.246;2023-10-19T06:09:52;10.60;99.90
82836;DHT22;72587;50.746;8.246;2023-10-19T06:12:17;10.60;99.90
82836;DHT22;72587;50.746;8.246;2023-10-19T06:14:44;10.60;99.90
82836;DHT22;72587;50.746;8.246;2023-10-19T06:17:09;10.70;99.90
82836;DHT22;72587;50.746;8.246;2023-10-19T06:19:35;10.70;99.90
82836;DHT22;72587;50.746;8.246;2023-10-19T06:22:00;10.70;99.90
82836;DHT22;72587;50.746;8.246;2023-10-19T06:24:28;10.80;99.90
82836;DHT22;72587;50.746;8.246;2023-10-19T06:26:53;10.70;99.90
82836;DHT22;72587;50.746;8.246;2023-10-19T06:29:19;10.70;99.90
82836;DHT22;72587;50.746;8.246;2023-10-19T06:31:44;10.80;99.90
82836;DHT22;72587;50.746;8.246;2023-10-19T06:34:10;10.80;99.90
82836;DHT22;72587;50.746;8.246;2023-10-19T06:36:36;10.80;99.90
82836;DHT22;72587;50.746;8.246;2023-10-19T06:39:01;10.80;99.90
82836;DHT22;72587;50.746;8.246;2023-10-19T06:41:31;10.80;99.90
82836;DHT22;72587;50.746;8.246;2023-10-19T06:43:57;10.80;99.90
82836;DHT22;72587;50.746;8.246;2023-10-19T06:46:24;10.80;99.90
82836;DHT22;72587;50.746;8.246;2023-10-19T06:48:49;10.90;99.90
82836;DHT22;72587;50.746;8.246;2023-10-19T06:51:16;10.90;99.90
82836;DHT22;72587;50.746;8.246;2023-10-19T06:53:42;10.90;99.90
82836;DHT22;72587;50.746;8.246;2023-10-19T06:56:07;10.90;99.90
82836;DHT22;72587;50.746;8.246;2023-10-19T06:58:33;10.90;99.90
82836;DHT22;72587;50.746;8.246;2023-10-19T07:00:59;11.00;99.90
82836;DHT22;72587;50.746;8.246;2023-10-19T07:03:30;11.00;99.90
82836;DHT22;72587;50.746;8.246;2023-10-19T07:05:56;11.00;99.90
82836;DHT22;72587;50.746;8.246;2023-10-19T07:08:23;11.00;99.90
82836;DHT22;72587;50.746;8.246;2023-10-19T07:10:49;11.10;99.90
82836;DHT22;72587;50.746;8.246;2023-10-19T07:13:18;11.10;99.90
82836;DHT22;72587;50.746;8.246;2023-10-19T07:15:47;11.00;99.90
82836;DHT22;72587;50.746;8.246;2023-10-19T07:18:14;11.10;99.90
82836;DHT22;72587;50.746;8.246;2023-10-19T07:20:40;11.10;99.90
82836;DHT22;72587;50.746;8.246;2023-10-19T07:23:08;11.10;99.90
82836;DHT22;72587;50.746;8.246;2023-10-19T07:25:52;11.20;99.90
82836;DHT22;72587;50.746;8.246;2023-10-19T07:28:20;11.20;99.90
82836;DHT22;72587;50.746;8.246;2023-10-19T07:30:47;11.10;99.90
82836;DHT22;72587;50.746;8.246;2023-10-19T07:33:14;11.10;99.90
82836;DHT22;72587;50.746;8.246;2023-10-19T07:35:43;11.20;99.90
82836;DHT22;72587;50.746;8.246;2023-10-19T07:38:09;11.20;99.90
82836;DHT22;72587;50.746;8.246;2023-10-19T07:40:36;11.20;99.90
82836;DHT22;72587;50.746;8.246;2023-10-19T07:43:01;11.20;99.90
82836;DHT22;72587;50.746;8.246;2023-10-19T07:45:29;11.30;99.90
82836;DHT22;72587;50.746;8.246;2023-10-19T07:47:56;11.30;99.90
82836;DHT22;72587;50.746;8.246;2023-10-19T07:50:22;11.30;99.90
82836;DHT22;72587;50.746;8.246;2023-10-19T07:52:50;11.30;99.90
82836;DHT22;72587;50.746;8.246;2023-10-19T07:55:17;11.40;99.90
82836;DHT22;72587;50.746;8.246;2023-10-19T07:57:44;11.50;99.90
82836;DHT22;72587;50.746;8.246;2023-10-19T08:00:10;11.50;99.90
82836;DHT22;72587;50.746;8.246;2023-10-19T08:02:38;11.50;99.90
82836;DHT22;72587;50.746;8.246;2023-10-19T08:05:07;11.50;99.90
82836;DHT22;72587;50.746;8.246;2023-10-19T08:07:33;11.60;99.90
82836;DHT22;72587;50.746;8.246;2023-10-19T08:10:02;11.60;99.90
82836;DHT22;72587;50.746;8.246;2023-10-19T08:12:31;11.70;99.90
82836;DHT22;72587;50.746;8.246;2023-10-19T08:14:58;11.60;99.90
82836;DHT22;72587;50.746;8.246;2023-10-19T08:17:24;11.70;99.90
82836;DHT22;72587;50.746;8.246;2023-10-19T08:19:50;11.70;99.90
82836;DHT22;72587;50.746;8.246;2023-10-19T08:22:16;11.60;99.90
82836;DHT22;72587;50.746;8.246;2023-10-19T08:24:41;11.80;99.90
82836;DHT22;72587;50.746;8.246;2023-10-19T08:27:11;11.90;99.90
82836;DHT22;72587;50.746;8.246;2023-10-19T08:29:38;12.00;99.90
82836;DHT22;72587;50.746;8.246;2023-10-19T08:32:04;12.00;99.90
82836;DHT22;72587;50.746;8.246;2023-10-19T08:34:34;12.10;99.90
82836;DHT22;72587;50.746;8.246;2023-10-19T08:37:01;12.20;99.90
82836;DHT22;72587;50.746;8.246;2023-10-19T08:39:28;12.20;99.90
82836;DHT22;72587;50.746;8.246;2023-10-19T08:41:53;12.30;99.90
82836;DHT22;72587;50.746;8.246;2023-10-19T08:44:20;12.50;99.90
82836;DHT22;72587;50.746;8.246;2023-10-19T08:46:46;12.60;99.90
82836;DHT22;72587;50.746;8.246;2023-10-19T08:49:17;12.60;99.90
82836;DHT22;72587;50.746;8.246;2023-10-19T08:51:46;12.70;99.90
82836;DHT22;72587;50.746;8.246;2023-10-19T08:54:12;12.90;99.90
82836;DHT22;72587;50.746;8.246;2023-10-19T08:56:42;13.10;99.90
82836;DHT22;72587;50.746;8.246;2023-10-19T08:59:08;13.30;99.90
82836;DHT22;72587;50.746;8.246;2023-10-19T09:01:37;13.50;99.90
82836;DHT22;72587;50.746;8.246;2023-10-19T09:04:03;13.60;99.90
82836;DHT22;72587;50.746;8.246;2023-10-19T09:06:33;13.70;99.90
82836;DHT22;72587;50.746;8.246;2023-10-19T09:09:09;13.70;99.90
82836;DHT22;72587;50.746;8.246;2023-10-19T09:11:45;13.90;99.90
82836;DHT22;72587;50.746;8.246;2023-10-19T09:14:12;14.00;99.90
82836;DHT22;72587;50.746;8.246;2023-10-19T09:16:41;14.10;99.90
82836;DHT22;72587;50.746;8.246;2023-10-19T09:19:19;14.20;99.90
82836;DHT22;72587;50.746;8.246;2023-10-19T09:21:45;14.40;99.90
82836;DHT22;72587;50.746;8.246;2023-10-19T09:24:11;14.50;99.90
82836;DHT22;72587;50.746;8.246;2023-10-19T09:26:37;14.60;99.90
82836;DHT22;72587;50.746;8.246;2023-10-19T09:29:03;14.70;99.90
82836;DHT22;72587;50.746;8.246;2023-10-19T09:31:29;14.70;99.90
82836;DHT22;72587;50.746;8.246;2023-10-19T09:33:56;14.70;99.90
82836;DHT22;72587;50.746;8.246;2023-10-19T09:36:24;14.60;99.90
82836;DHT22;72587;50.746;8.246;2023-10-19T09:38:52;14.70;99.90
82836;DHT22;72587;50.746;8.246;2023-10-19T09:41:20;14.50;99.90
82836;DHT22;72587;50.746;8.246;2023-10-19T09:43:47;14.50;99.90
82836;DHT22;72587;50.746;8.246;2023-10-19T09:46:27;14.50;99.90
82836;DHT22;72587;50.746;8.246;2023-10-19T09:48:55;14.70;99.90
82836;DHT22;72587;50.746;8.246;2023-10-19T09:51:22;14.90;99.90
82836;DHT22;72587;50.746;8.246;2023-10-19T09:56:28;15.10;99.90
82836;DHT22;72587;50.746;8.246;2023-10-19T09:58:59;15.30;99.90
82836;DHT22;72587;50.746;8.246;2023-10-19T10:01:25;15.50;99.90
82836;DHT22;72587;50.746;8.246;2023-10-19T10:03:53;15.70;99.90
82836;DHT22;72587;50.746;8.246;2023-10-19T10:09:20;16.00;99.90
82836;DHT22;72587;50.746;8.246;2023-10-19T10:11:51;16.20;99.90
82836;DHT22;72587;50.746;8.246;2023-10-19T10:14:25;16.70;99.90
82836;DHT22;72587;50.746;8.246;2023-10-19T10:17:04;17.20;99.90
82836;DHT22;72587;50.746;8.246;2023-10-19T10:19:30;17.50;99.90
82836;DHT22;72587;50.746;8.246;2023-10-19T10:22:09;17.70;99.90
82836;DHT22;72587;50.746;8.246;2023-10-19T10:24:43;17.60;99.90
82836;DHT22;72587;50.746;8.246;2023-10-19T10:27:09;17.70;99.90
82836;DHT22;72587;50.746;8.246;2023-10-19T10:29:36;17.90;99.90
82836;DHT22;72587;50.746;8.246;2023-10-19T10:32:02;18.00;99.90
82836;DHT22;72587;50.746;8.246;2023-10-19T10:37:00;18.20;99.90
82836;DHT22;72587;50.746;8.246;2023-10-19T10:39:28;18.20;99.90
82836;DHT22;72587;50.746;8.246;2023-10-19T10:41:59;18.40;99.90
82836;DHT22;72587;50.746;8.246;2023-10-19T10:44:44;18.30;99.90
82836;DHT22;72587;50.746;8.246;2023-10-19T10:47:20;18.30;99.90
82836;DHT22;72587;50.746;8.246;2023-10-19T10:49:50;18.30;99.90
82836;DHT22;72587;50.746;8.246;2023-10-19T10:52:34;18.10;99.90
82836;DHT22;72587;50.746;8.246;2023-10-19T10:55:20;17.70;99.90
82836;DHT22;72587;50.746;8.246;2023-10-19T10:57:45;17.50;99.90
82836;DHT22;72587;50.746;8.246;2023-10-19T11:00:13;17.40;99.90
82836;DHT22;72587;50.746;8.246;2023-10-19T11:02:42;17.10;99.90
82836;DHT22;72587;50.746;8.246;2023-10-19T11:05:15;17.00;99.90
82836;DHT22;72587;50.746;8.246;2023-10-19T11:08:08;17.00;99.90
82836;DHT22;72587;50.746;8.246;2023-10-19T11:10:42;17.00;99.90
82836;DHT22;72587;50.746;8.246;2023-10-19T11:13:12;17.20;99.90
82836;DHT22;72587;50.746;8.246;2023-10-19T11:15:39;17.30;99.90
82836;DHT22;72587;50.746;8.246;2023-10-19T11:18:34;17.40;99.90
82836;DHT22;72587;50.746;8.246;2023-10-19T11:21:02;17.60;99.90
82836;DHT22;72587;50.746;8.246;2023-10-19T11:23:45;17.70;99.90
82836;DHT22;72587;50.746;8.246;2023-10-19T11:26:11;17.80;99.90
82836;DHT22;72587;50.746;8.246;2023-10-19T11:28:38;17.70;99.90
82836;DHT22;72587;50.746;8.246;2023-10-19T11:31:13;17.70;99.90
82836;DHT22;72587;50.746;8.246;2023-10-19T11:33:40;17.60;99.90
82836;DHT22;72587;50.746;8.246;2023-10-19T11:36:07;17.60;99.90
82836;DHT22;72587;50.746;8.246;2023-10-19T11:38:32;17.40;99.90
82836;DHT22;72587;50.746;8.246;2023-10-19T11:40:58;17.30;99.90
82836;DHT22;72587;50.746;8.246;2023-10-19T11:43:23;17.10;99.90
82836;DHT22;72587;50.746;8.246;2023-10-19T11:45:49;17.10;99.90
82836;DHT22;72587;50.746;8.246;2023-10-19T11:48:15;17.20;99.90
82836;DHT22;72587;50.746;8.246;2023-10-19T11:50:41;17.30;99.90
82836;DHT22;72587;50.746;8.246;2023-10-19T11:53:06;17.40;99.90
82836;DHT22;72587;50.746;8.246;2023-10-19T11:55:35;17.40;99.90
82836;DHT22;72587;50.746;8.246;2023-10-19T11:58:01;17.40;99.90
82836;DHT22;72587;50.746;8.246;2023-10-19T12:00:26;17.30;99.90
82836;DHT22;72587;50.746;8.246;2023-10-19T12:02:59;17.40;99.90
82836;DHT22;72587;50.746;8.246;2023-10-19T12:05:24;17.50;99.90
82836;DHT22;72587;50.746;8.246;2023-10-19T12:07:50;17.50;99.90
82836;DHT22;72587;50.746;8.246;2023-10-19T12:10:17;17.70;99.90
82836;DHT22;72587;50.746;8.246;2023-10-19T12:12:45;17.80;99.90
82836;DHT22;72587;50.746;8.246;2023-10-19T12:15:11;17.70;99.90
82836;DHT22;72587;50.746;8.246;2023-10-19T12:17:38;17.80;99.90
82836;DHT22;72587;50.746;8.246;2023-10-19T12:20:03;17.70;99.90
82836;DHT22;72587;50.746;8.246;2023-10-19T12:22:32;17.80;99.90
82836;DHT22;72587;50.746;8.246;2023-10-19T12:25:02;17.70;99.90
82836;DHT22;72587;50.746;8.246;2023-10-19T12:27:28;17.60;99.90
82836;DHT22;72587;50.746;8.246;2023-10-19T12:29:53;17.70;99.90
82836;DHT22;72587;50.746;8.246;2023-10-19T12:32:21;17.70;99.90
82836;DHT22;72587;50.746;8.246;2023-10-19T12:34:47;17.80;99.90
82836;DHT22;72587;50.746;8.246;2023-10-19T12:37:15;18.00;99.90
82836;DHT22;72587;50.746;8.246;2023-10-19T12:39:43;17.90;99.90
82836;DHT22;72587;50.746;8.246;2023-10-19T12:42:10;18.00;99.90
82836;DHT22;72587;50.746;8.246;2023-10-19T12:44:36;18.10;99.90
82836;DHT22;72587;50.746;8.246;2023-10-19T12:47:10;18.10;99.90
82836;DHT22;72587;50.746;8.246;2023-10-19T12:49:39;18.10;99.90
82836;DHT22;72587;50.746;8.246;2023-10-19T12:52:04;18.00;99.90
82836;DHT22;72587;50.746;8.246;2023-10-19T12:54:35;17.90;99.90
82836;DHT22;72587;50.746;8.246;2023-10-19T12:57:02;17.80;99.90
82836;DHT22;72587;50.746;8.246;2023-10-19T12:59:32;17.60;99.90
82836;DHT22;72587;50.746;8.246;2023-10-19T13:01:58;17.60;99.90
82836;DHT22;72587;50.746;8.246;2023-10-19T13:04:26;17.60;99.90
82836;DHT22;72587;50.746;8.246;2023-10-19T13:06:56;17.40;99.90
82836;DHT22;72587;50.746;8.246;2023-10-19T13:09:26;17.50;99.90
82836;DHT22;72587;50.746;8.246;2023-10-19T13:12:01;17.60;99.90
82836;DHT22;72587;50.746;8.246;2023-10-19T13:14:27;17.50;99.90
82836;DHT22;72587;50.746;8.246;2023-10-19T13:16:53;17.50;99.90
82836;DHT22;72587;50.746;8.246;2023-10-19T13:19:20;17.50;99.90
82836;DHT22;72587;50.746;8.246;2023-10-19T13:21:49;17.60;99.90
82836;DHT22;72587;50.746;8.246;2023-10-19T13:24:16;17.50;99.90
82836;DHT22;72587;50.746;8.246;2023-10-19T13:26:42;17.40;99.90
82836;DHT22;72587;50.746;8.246;2023-10-19T13:29:11;17.30;99.90
82836;DHT22;72587;50.746;8.246;2023-10-19T13:31:37;17.20;99.90
82836;DHT22;72587;50.746;8.246;2023-10-19T13:34:02;17.20;99.90
82836;DHT22;72587;50.746;8.246;2023-10-19T13:36:30;17.10;99.90
82836;DHT22;72587;50.746;8.246;2023-10-19T13:38:55;17.00;99.90
82836;DHT22;72587;50.746;8.246;2023-10-19T13:41:21;17.10;99.90
82836;DHT22;72587;50.746;8.246;2023-10-19T13:43:47;17.00;99.90
82836;DHT22;72587;50.746;8.246;2023-10-19T13:46:13;16.90;99.90
82836;DHT22;72587;50.746;8.246;2023-10-19T13:48:39;16.90;99.90
82836;DHT22;72587;50.746;8.246;2023-10-19T13:51:05;16.80;99.90
82836;DHT22;72587;50.746;8.246;2023-10-19T13:53:41;16.80;99.90
82836;DHT22;72587;50.746;8.246;2023-10-19T13:56:10;16.80;99.90
82836;DHT22;72587;50.746;8.246;2023-10-19T13:58:36;16.70;99.90
82836;DHT22;72587;50.746;8.246;2023-10-19T14:01:02;16.70;99.90
82836;DHT22;72587;50.746;8.246;2023-10-19T14:03:29;16.70;99.90
82836;DHT22;72587;50.746;8.246;2023-10-19T14:05:56;16.70;99.90
82836;DHT22;72587;50.746;8.246;2023-10-19T14:08:22;16.80;99.90
82836;DHT22;72587;50.746;8.246;2023-10-19T14:10:47;16.80;99.90
82836;DHT22;72587;50.746;8.246;2023-10-19T14:13:13;16.80;99.90
82836;DHT22;72587;50.746;8.246;2023-10-19T14:15:42;16.80;99.90
82836;DHT22;72587;50.746;8.246;2023-10-19T14:18:08;16.80;99.90
82836;DHT22;72587;50.746;8.246;2023-10-19T14:20:34;16.80;99.90
82836;DHT22;72587;50.746;8.246;2023-10-19T14:23:01;16.80;99.90
82836;DHT22;72587;50.746;8.246;2023-10-19T14:25:27;16.80;99.90
82836;DHT22;72587;50.746;8.246;2023-10-19T14:27:55;16.70;99.90
82836;DHT22;72587;50.746;8.246;2023-10-19T14:30:25;16.80;99.90
82836;DHT22;72587;50.746;8.246;2023-10-19T14:32:51;16.70;99.90
82836;DHT22;72587;50.746;8.246;2023-10-19T14:35:19;16.60;99.90
82836;DHT22;72587;50.746;8.246;2023-10-19T14:37:47;16.60;99.90
82836;DHT22;72587;50.746;8.246;2023-10-19T14:40:23;16.60;99.90
82836;DHT22;72587;50.746;8.246;2023-10-19T14:42:50;16.60;99.90
82836;DHT22;72587;50.746;8.246;2023-10-19T14:45:19;16.60;99.90
82836;DHT22;72587;50.746;8.246;2023-10-19T14:47:49;16.50;99.90
82836;DHT22;72587;50.746;8.246;2023-10-19T14:50:20;16.50;99.90
82836;DHT22;72587;50.746;8.246;2023-10-19T14:52:47;16.40;99.90
82836;DHT22;72587;50.746;8.246;2023-10-19T14:55:13;16.40;99.90
82836;DHT22;72587;50.746;8.246;2023-10-19T14:57:41;16.40;99.90
82836;DHT22;72587;50.746;8.246;2023-10-19T15:00:08;16.40;99.90
82836;DHT22;72587;50.746;8.246;2023-10-19T15:02:44;16.40;99.90
82836;DHT22;72587;50.746;8.246;2023-10-19T15:05:11;16.30;99.90
82836;DHT22;72587;50.746;8.246;2023-10-19T15:07:40;16.20;99.90
82836;DHT22;72587;50.746;8.246;2023-10-19T15:10:06;16.20;99.90
82836;DHT22;72587;50.746;8.246;2023-10-19T15:12:36;16.20;99.90
82836;DHT22;72587;50.746;8.246;2023-10-19T15:15:02;16.10;99.90
82836;DHT22;72587;50.746;8.246;2023-10-19T15:17:28;16.20;99.90
82836;DHT22;72587;50.746;8.246;2023-10-19T15:19:54;16.10;99.90
82836;DHT22;72587;50.746;8.246;2023-10-19T15:22:19;16.20;99.90
82836;DHT22;72587;50.746;8.246;2023-10-19T15:24:45;16.10;99.90
82836;DHT22;72587;50.746;8.246;2023-10-19T15:27:10;16.10;99.90
82836;DHT22;72587;50.746;8.246;2023-10-19T15:29:36;16.10;99.90
82836;DHT22;72587;50.746;8.246;2023-10-19T15:32:01;16.00;99.90
82836;DHT22;72587;50.746;8.246;2023-10-19T15:34:27;16.00;99.90
82836;DHT22;72587;50.746;8.246;2023-10-19T15:36:55;16.00;99.90
82836;DHT22;72587;50.746;8.246;2023-10-19T15:39:21;16.00;99.90
82836;DHT22;72587;50.746;8.246;2023-10-19T15:41:48;16.00;99.90
82836;DHT22;72587;50.746;8.246;2023-10-19T15:44:14;15.90;99.90
82836;DHT22;72587;50.746;8.246;2023-10-19T15:46:40;15.90;99.90
82836;DHT22;72587;50.746;8.246;2023-10-19T15:49:08;15.90;99.90
82836;DHT22;72587;50.746;8.246;2023-10-19T15:51:34;15.90;99.90